Team logos
Guidelines for entries Team Leaderboard Add or Update a Person FAQ
Jun 2016 - Thirty minutes @ twenty four SPM
This challenge was chosen by the Independents

Row for thirty minutes at a stroke rate of 24 SPM or lower

Record the distance you've rowed after that half hour of pain.

The July challenge will be chosen by Fitness Matters.


See the ISS forum thread for details.

Most Recent EntriesAdd/Update an Entry
DateNameCatTeamResult
2016-06-25ianahMLWTRed Line Rowers 5959
2016-06-25Al NisbetMHWTFitness Matters 8303
2016-06-25Scott PollockMHWTSub 7 8524
2016-06-25Sion EvansMHWTFitness Matters 7388
2016-06-25Bela Visontai FMMHWTFitness Matters 7506
Bold = new time; italic = updated time
Name:
Password:
Entry: metres
 
Current Leaderboard
Names in blue italics have added or updated their times within the past 24 hours.
#NameCatTeamResultPacePower
1Luke WollenschlaegerMPaddy Power I 8975   1:40.3  347.1 
2Sam BlytheMFitness Matters I 8862   1:41.6  334.1 
3Graham BentonMMAD I 8756   1:42.8  322.3 
4Andy BenkoMPaddy Power I 8741   1:43.0  320.6 
5Jon Nonklett FMMFitness Matters I 8699   1:43.5  316.0 
6Shane KingslandMFitness Matters I 8675   1:43.7  313.4 
7Kem Weihe FMMFitness Matters II 8663   1:43.9  312.1 
8Charles Green FMMFitness Matters II 8615   1:44.5  307.0 
9Benjamin ReuterMFitness Matters II 8601   1:44.6  305.5 
10KOWAL FMFIRT I 8570   1:45.0  302.2 
11Chris chapmanMFitness Matters III 8557   1:45.2  300.8 
12Ole Bahlmann FMMFitness Matters III 8525   1:45.6  297.5 
13Scott PollockMSub 7 I 8524   1:45.6  297.4 
14EricLMFIRT I 8518   1:45.7  296.7 
15Toby J BackhouseMRowPro Rowers I 8517   1:45.7  296.6 
16Kev BellMSub 7 I 8514   1:45.7  296.3 
17BlanksbyFMMFitness Matters III 8506   1:45.8  295.5 
18Tobias StoehrMFitness Matters IV 8501   1:45.9  295.0 
19Lee Bawn FMMFitness Matters IV 8484   1:46.1  293.2 
2011Thomas HansenMFitness Matters IV 8479   1:46.1  292.7 
21Warren MatthewsMSub 7 I 8470   1:46.3  291.7 
22Danny GrahamMTeam Oarsome I 8449   1:46.5  289.6 
23Justin Farina FMMFitness Matters V 8436   1:46.7  288.2 
24Bjorn_StensheimMRowPro Rowers I 8420   1:46.9  286.6 
25Richard CheesemanMSub 7 II 8405   1:47.1  285.1 
26Patrick MidgleyMFitness Matters V 8396   1:47.2  284.2 
27Mark MitchellmMAD I 8395   1:47.2  284.1 
28Alfred OkellomSub 7 I 8381   1:47.4  282.6 
29Daz HoareMRoyal Navy I 8376   1:47.4  282.1 
30Rob Condy-young FMMFitness Matters V 8370   1:47.5  281.5 
31j.dMMAD I 8369   1:47.5  281.4 
32Keith DarbymRed Line Rowers I 8360   1:47.7  280.5 
33Jeff JulianMForum Flyers I 8358   1:47.7  280.3 
34David ScottMSub 7 II 8347   1:47.8  279.2 
35Felton HumbleMFree Spirits I 8342   1:47.9  278.7 
36Arwed EggermRowPro Rowers I 8336   1:48.0  278.1 
37James HydeMRoyal Navy I 8330   1:48.0  277.5 
38Paul GrimsterMFitness Matters VI 8326   1:48.1  277.1 
39LiefcatMFree Spirits I 8323   1:48.1  276.8 
40js.klsmFIRT I 8316   1:48.2  276.1 
41Jens Kristian DammSub 7 II 8303   1:48.4  274.8 
42Al NisbetMFitness Matters VI 8303   1:48.4  274.8 
43Lee WaddonMFitness Matters VI 8298   1:48.5  274.3 
44Rowdy Hurst FMMFitness Matters VII 8292   1:48.5  273.7 
45Jonty LeeseMSub 7 II 8288   1:48.6  273.3 
46hjsMForum Flyers I 8288   1:48.6  273.3 
47Julian WarrickMFitness Matters VII 8284   1:48.6  272.9 
48Max O'MalleymFitness Matters I 8283   1:48.7  272.8 
49Walter ZagzebskiMSub 7 III 8253   1:49.1  269.9 
50Chris KellymFitness Matters II 8226   1:49.4  267.2 
51Trevor Bailey FMMFitness Matters VII 8225   1:49.4  267.1 
52Todd CarpenterMForum Flyers I 8208   1:49.6  265.5 
53Dave Pimm FMMFitness Matters VIII 8206   1:49.7  265.3 
54sebastien rodriguezMFIRT I 8204   1:49.7  265.1 
55John SteventonmFree Spirits I 8203   1:49.7  265.0 
56Robert CarsonMFitness Matters VIII 8203   1:49.7  265.0 
57Sam Smith FMMFitness Matters VIII 8202   1:49.7  264.9 
58Martin EvansMSub 7 III 8200   1:49.8  264.7 
59Odd Ivar LindlandMForum Flyers II 8197   1:49.8  264.4 
60Dave ChmilowskyjMTeam Oarsome I 8193   1:49.8  264.0 
61Ralf AchenbachMC2TweetCrew I 8193   1:49.8  264.0 
62Bergur JensenmSub 7 III 8185   1:50.0  263.3 
63Alastair PeakemSub 7 III 8174   1:50.1  262.2 
64macrothMForum Flyers II 8172   1:50.1  262.0 
65haaicoMFree Spirits I 8159   1:50.3  260.8 
66Robert MayesMDLC Gidea Park I 8158   1:50.3  260.7 
67Remy CoubelMFIRT II 8154   1:50.4  260.3 
68Nigel FarmerMForum Flyers II 8143   1:50.5  259.2 
69Martin leachMTeam Oarsome I 8137   1:50.6  258.7 
70patrice CORNUTMFIRT II 8131   1:50.7  258.1 
71Fred FreyMIndependent I 8130   1:50.7  258.0 
72Pete MarstonMMAD I 8120   1:50.8  257.0 
73cygwylltMSub 7 IV 8113   1:50.9  256.4 
74André HenningsMSYC Rowing Crew I 8103   1:51.1  255.4 
75ApplesmRoyal Navy I 8103   1:51.1  255.4 
76Rob ChildsMFitness Matters IX 8101   1:51.1  255.2 
77Ally CooperMSub 7 IV 8099   1:51.1  255.1 
78stupefactionMTeam Oarsome II 8090   1:51.2  254.2 
791 Ross LoveMFitness Matters IX 8084   1:51.3  253.6 
80James stapletonMFitness Matters IX 8073   1:51.5  252.6 
81Sean GaffneyMSub 7 IV 8067   1:51.6  252.0 
82Morten HaugsengMFree Spirits II 8062   1:51.6  251.6 
83Jean-Charles RSMFIRT II 8061   1:51.6  251.5 
84John Healey FMMFitness Matters X 8059   1:51.7  251.3 
85Bogi Olsen FMmFitness Matters III 8057   1:51.7  251.1 
86Andy ParkesMGee Crew I 8053   1:51.8  250.7 
87Damien RoohrMForum Flyers III 8052   1:51.8  250.6 
88Darren Owen FMMFitness Matters X 8047   1:51.8  250.2 
89Luke Grose FMMFitness Matters X 8047   1:51.8  250.2 
90Tom Southall FMMFitness Matters XI 8045   1:51.9  250.0 
91Steven RichieMSub 7 V 8044   1:51.9  249.9 
92Andy J PearceMC2TweetCrew I 8037   1:52.0  249.2 
93bisqeetMSub 7 V 8031   1:52.1  248.7 
94Matt FosterMSub 7 V 8028   1:52.1  248.4 
95Andy BurrowsMTeam Oarsome II 8026   1:52.1  248.2 
96gregsmith01748MFree Spirits II 8026   1:52.1  248.2 
97Casey ClarkeMSub 7 VI 8024   1:52.2  248.0 
98Rowland Hills (RLR)MRed Line Rowers I 8023   1:52.2  247.9 
99RougeMGee Crew I 8017   1:52.3  247.4 
100WiecherMForum Flyers III 8016   1:52.3  247.3 
101Stuart JacksonmSub 7 IV 8016   1:52.3  247.3 
102LuismFIRT II 8014   1:52.3  247.1 
103Casey Clarke SkiErgMSki Erg I 8010   1:52.4  246.7 
104Gregory Cook IImTeam Oarsome I 8009   1:52.4  246.6 
105Arkadiusz KieliszekmSub 7 V 8008   1:52.4  246.6 
106Bezza RLRmRed Line Rowers I 7975   1:52.9  243.5 
107bougli13008mFIRT III 7963   1:53.0  242.4 
108Joseph SmyntekMEmpty the Tanks I 7942   1:53.3  240.5 
109Ian Witt RLRMRed Line Rowers I 7935   1:53.4  239.9 
110PongiMFitness Matters XI 7935   1:53.4  239.9 
111MerciermFIRT III 7915   1:53.7  238.1 
112Markus DornMC2TweetCrew I 7915   1:53.7  238.1 
113Robert JonesMSub 7 VI 7907   1:53.8  237.3 
114Paul Bryson (TS)MTribesports I 7905   1:53.9  237.2 
115Joe GigginsmDLC Gidea Park I 7902   1:53.9  236.9 
116Ryan Morris FMMFitness Matters XI 7901   1:53.9  236.8 
117Roger Johansen FMMFitness Matters XII 7896   1:54.0  236.4 
118Kay BieriMC2TweetCrew II 7880   1:54.2  234.9 
119Eddie Edwards FMMFitness Matters XII 7874   1:54.3  234.4 
120Richard SteventonMSub 7 VI 7865   1:54.4  233.6 
121Marc CharmanmSub 7 VI 7864   1:54.4  233.5 
122Bob BellMDLC Gidea Park I 7860   1:54.5  233.1 
123Dan mynardMPaddy Power I 7850   1:54.6  232.2 
124patrick TERGEMINAMFIRT III 7847   1:54.7  232.0 
125GaleereMEmpty the Tanks I 7839   1:54.8  231.3 
126Anna LewisFMAD I 7838   1:54.8  231.2 
127schueyMSub 7 VII 7837   1:54.8  231.1 
128Mark FowlerMPaddy Power II 7834   1:54.9  230.8 
129Mark ChristieMForum Flyers III 7812   1:55.2  228.9 
130david FROCmFIRT III 7812   1:55.2  228.9 
131Chris FFmForum Flyers I 7807   1:55.3  228.5 
132Scott KevinMFIRT IV 7806   1:55.3  228.4 
133Mark KeownMAge Without Limits I 7806   1:55.3  228.4 
134tony walpoleMFitness Matters XII 7803   1:55.3  228.1 
135Chris SpurdlemFitness Matters IV 7793   1:55.5  227.2 
136Seb MillerMFree Spirits II 7791   1:55.5  227.0 
137W de JongMForum Flyers IV 7786   1:55.6  226.6 
138Hannah HawkinsFTeam Oarsome I 7783   1:55.6  226.4 
139Stephen Perkins FMMFitness Matters XIII 7779   1:55.7  226.0 
140Mike KM BeardmFitness Matters V 7777   1:55.7  225.8 
141Magnus KMSub 7 VII 7770   1:55.8  225.2 
142David WhaleMForum Flyers IV 7765   1:55.9  224.8 
143Dan BrookesMFitness Matters XIII 7751   1:56.1  223.6 
144Kevin James FMMFitness Matters XIII 7750   1:56.1  223.5 
145Steve PricemMAD II 7743   1:56.2  222.9 
146Mark Gaffney FMMFitness Matters XIV 7738   1:56.3  222.4 
147Mike Channin (Tribesports)MTribesports I 7735   1:56.4  222.2 
148Mark LysonsMRed Line Rowers II 7734   1:56.4  222.1 
149Giles Clarke (RLR)MRed Line Rowers II 7727   1:56.5  221.5 
1501Jaime InglebymFitness Matters VI 7724   1:56.5  221.2 
151John DaviesMSub 7 VII 7722   1:56.6  221.1 
152davidmarksMPaddy Power II 7721   1:56.6  221.0 
153Rob J WilsonmSub 7 VII 7716   1:56.6  220.6 
154Paul White (RLR)mRed Line Rowers II 7710   1:56.7  220.0 
155Seb JohnMSub 7 VIII 7709   1:56.7  220.0 
156SanderJRoosendaalmFree Spirits II 7705   1:56.8  219.6 
157Jon EsauMFree Spirits III 7693   1:57.0  218.6 
158Paul VictoryMFree Spirits III 7686   1:57.1  218.0 
159andrewcrystalMForum Flyers IV 7684   1:57.1  217.8 
160James HildebrandMPenobscot River IRC I 7682   1:57.2  217.7 
161Sam white HWMSub 7 VIII 7673   1:57.3  216.9 
162Howard BrammerMFitness Matters XIV 7672   1:57.3  216.8 
163Aaron LancasterMSub 7 VIII 7662   1:57.5  216.0 
164anthony FFMForum Flyers V 7660   1:57.5  215.8 
165Mark PowellMSub 7 IX 7660   1:57.5  215.8 
166Ray Lowrie FMMFitness Matters XIV 7645   1:57.7  214.5 
167Rohan GiffordmForum Flyers II 7643   1:57.8  214.4 
168Charlotte PiggFMAD II 7643   1:57.8  214.4 
169Eric JonesMSub 7 IX 7633   1:57.9  213.5 
170LindsayhMForum Flyers V 7632   1:57.9  213.4 
171Lee buckleyMFitness Matters XV 7628   1:58.0  213.1 
172Dirk VeugerMC2TweetCrew II 7626   1:58.0  212.9 
173OranjmIndependent I 7624   1:58.0  212.8 
174Jean-Pierre GORINmFIRT IV 7615   1:58.2  212.0 
175Dave HaynesMFitness Matters XV 7615   1:58.2  212.0 
176Steve OckerbyMForum Flyers V 7612   1:58.2  211.8 
177philou71MFIRT IV 7612   1:58.2  211.8 
178Michael McKeeMFitness Matters XV 7608   1:58.3  211.4 
179Claire Sowerby FMFFitness Matters I 7608   1:58.3  211.4 
180Paul David SmithmSub 7 VIII 7604   1:58.4  211.1 
181David JuntaMRowPro Rowers I 7603   1:58.4  211.0 
182Peter WeißMFree Spirits III 7581   1:58.7  209.2 
183FREELANCE BG NORIS GIGImCUS Bergamo I 7577   1:58.8  208.8 
184ClaudiusMFree Spirits IV 7576   1:58.8  208.8 
185Tom DollyMSub 7 IX 7570   1:58.9  208.3 
186Frank NoorlanderMForum Flyers VI 7565   1:59.0  207.9 
187Ben MMTribesports I 7564   1:59.0  207.8 
188Will HaskellmForum Flyers III 7563   1:59.0  207.7 
189Jorn FarmenMRed Line Rowers II 7563   1:59.0  207.7 
190Trevor TaylorMFree Spirits IV 7548   1:59.2  206.5 
191Gert HansenMSub 7 X 7546   1:59.3  206.3 
192Bjorn Tore Lodding skiMSki Erg I 7537   1:59.4  205.6 
193Nigel COLLEYMFitness Matters XVI 7531   1:59.5  205.1 
194James ThorntonmSub 7 IX 7530   1:59.5  205.0 
195Ash DaweMFitness Matters XVI 7526   1:59.6  204.7 
196Bill_SchmidtmEmpty the Tanks I 7525   1:59.6  204.6 
197Inga Weihe FMFFitness Matters II 7524   1:59.6  204.5 
198Simon ThomasMSub 7 X 7523   1:59.6  204.4 
199Matthew TiltMFitness Matters XVI 7521   1:59.7  204.3 
200Andrew Hajek FMmFitness Matters VII 7520   1:59.7  204.2 
201Steve SmithMFree Spirits IV 7519   1:59.7  204.1 
202Dave2220mFree Spirits III 7510   1:59.8  203.4 
203Bela Visontai FMMFitness Matters XVII 7506   1:59.9  203.0 
204Jon CiarloMSub 7 X 7503   2:00.0  202.8 
205Joe A KeatingmPaddy Power I 7502   2:00.0  202.7 
206regis lardenoisMFIRT IV 7500   2:00.0  202.5 
207Anne BourliouxFRowPro Rowers I 7500   2:00.0  202.5 
208PALMFitness Matters XVII 7496   2:00.1  202.2 
209Chris WhaleMForum Flyers VI 7477   2:00.4  200.7 
210David PlumbmFree Spirits IV 7475   2:00.4  200.5 
211Jarrett MooreMAge Without Limits I 7475   2:00.4  200.5 
212Hennie MartiniMRed Line Rowers III 7467   2:00.5  199.9 
213Alan ChampionmSub 7 X 7463   2:00.6  199.6 
214Richard Campos (RLR)MRed Line Rowers III 7460   2:00.6  199.3 
215John PriceMDLC Gidea Park I 7457   2:00.7  199.1 
216David TaylorMFree Spirits V 7440   2:01.0  197.7 
217DexMForum Flyers VI 7434   2:01.1  197.2 
218Timothy TurnerMSub 7 XI 7434   2:01.1  197.2 
219Paul Febery FMmFitness Matters VIII 7429   2:01.1  196.8 
220Gerry McQuadeMSub 7 XI 7415   2:01.4  195.7 
221Paul HeselwoodmSub 7 XI 7411   2:01.4  195.4 
222Deangeli JFmFIRT V 7410   2:01.5  195.3 
223Victoria Taylor FMFFitness Matters III 7403   2:01.6  194.8 
224Ben WithersMFitness Matters XVII 7400   2:01.6  194.6 
225alan wisniewskiMFree Spirits V 7398   2:01.7  194.4 
226Mike CreamerMRowPro Rowers II 7397   2:01.7  194.3 
227Nigel BrocktonmSub 7 XI 7394   2:01.7  194.1 
228Sion EvansMFitness Matters XVIII 7388   2:01.8  193.6 
229Hill BillyMFitness Matters XVIII 7386   2:01.9  193.4 
2302444 Rob SmiffMPenobscot River IRC I 7385   2:01.9  193.4 
231George Bingham (RLR)MRed Line Rowers III 7382   2:01.9  193.1 
232Olivier DeparisMForum Flyers VII 7367   2:02.2  192.0 
233Christopher SmithMTribesports II 7362   2:02.2  191.6 
234Fernandes EmmanuelMFIRT V 7340   2:02.6  189.9 
235Andy LangmanMSub 7 XII 7321   2:02.9  188.4 
236Craig HudsonMIndependent I 7306   2:03.2  187.2 
237David SAGONMFIRT V 7303   2:03.2  187.0 
238LoopingmFIRT V 7300   2:03.3  186.8 
239Rhian BowenFSub 7 I 7297   2:03.3  186.5 
240Richard LindnerMFree Spirits V 7273   2:03.7  184.7 
241RLR_Andrew_JonesMRed Line Rowers IV 7270   2:03.8  184.5 
242laurent GALLOMFIRT VI 7265   2:03.9  184.1 
243Jon P TaylormFree Spirits V 7257   2:04.0  183.5 
244Margaret GreenhallfSub 7 II 7246   2:04.2  182.7 
245Guy BeallemFIRT VI 7246   2:04.2  182.7 
246Chris RMFIRT VI 7243   2:04.3  182.4 
247Mike BrownjohnmDLC Gidea Park II 7241   2:04.3  182.3 
248Mark ShawmFitness Matters IX 7234   2:04.4  181.8 
249Mark Oscroft FMMFitness Matters XVIII 7221   2:04.6  180.8 
250Kim Hansen FMMFitness Matters XIX 7218   2:04.7  180.5 
251Roger Bjarm ForneboMRed Line Rowers IV 7218   2:04.7  180.5 
252David AustinmRed Line Rowers III 7213   2:04.8  180.2 
253Dirk SundermannMSYC Rowing Crew I 7205   2:04.9  179.6 
254Jo Andrews RLRFRed Line Rowers I 7204   2:04.9  179.5 
255BradT2 FFmForum Flyers IV 7203   2:04.9  179.4 
256Kenneth MurdochMEmpty the Tanks I 7202   2:05.0  179.3 
257Stuart PowermDLC Gidea Park II 7201   2:05.0  179.3 
258Andy Harvey FMMFitness Matters XIX 7200   2:05.0  179.2 
259FREELANCE BG LANZONI SfCUS Bergamo I 7191   2:05.2  178.5 
260Ken FairleymSub 7 XII 7188   2:05.2  178.3 
261Russ GardenerMRed Line Rowers IV 7185   2:05.3  178.1 
262steeve DANDREYMFIRT VI 7176   2:05.4  177.4 
263Stuart ThorpMC2TweetCrew II 7172   2:05.5  177.1 
264Adam DuthiemForum Flyers V 7170   2:05.5  177.0 
265Alan Strang (TS)mTribesports I 7157   2:05.8  176.0 
266LucyOBFPaddy Power I 7153   2:05.8  175.7 
267Rob CMFree Spirits VI 7152   2:05.8  175.6 
268Jim HeadmGee Crew I 7142   2:06.0  174.9 
269Simon_EngMÄIRC I 7142   2:06.0  174.9 
270Shelagh tubbyFRed Line Rowers II 7124   2:06.3  173.6 
271Jordan FalconeFRowPro Rowers II 7115   2:06.5  172.9 
272Johan HoekemC2TweetCrew I 7109   2:06.6  172.5 
273Martyn SmithMC2TweetCrew III 7092   2:06.9  171.3 
274Sarah Gibbs FMfFitness Matters IV 7087   2:07.0  170.9 
275Mark CawthorneMFree Spirits VI 7087   2:07.0  170.9 
276Jeremy HeavenMSub 7 XII 7087   2:07.0  170.9 
277Andy TrippMTribesports II 7087   2:07.0  170.9 
278WazzaSub75mSub 7 XII 7085   2:07.0  170.7 
279Cemlyn JonesMRowPro Rowers II 7085   2:07.0  170.7 
280herve pruneaumFIRT VII 7084   2:07.0  170.7 
281Carol WoodwardfSub 7 III 7079   2:07.1  170.3 
282Sarita Kristina HansenfSub 7 IV 7077   2:07.2  170.2 
283Rachel HarrisFMAD II 7075   2:07.2  170.0 
284Rod.ChinnmSub 7 XIII 7072   2:07.3  169.8 
285Yves GambierMFIRT VII 7059   2:07.5  168.9 
286John StockMForum Flyers VII 7057   2:07.5  168.7 
287Guenther HeldtMFree Spirits VI 7055   2:07.6  168.6 
288Dan FarmermForum Flyers VI 7037   2:07.9  167.3 
289Carlos RodriguezmSub 7 XIII 7036   2:07.9  167.2 
290Doug RollandMRowPro Rowers II 7036   2:07.9  167.2 
291Paul GouldMForum Flyers VII 7032   2:08.0  166.9 
292Graham ToothMFitness Matters XIX 7025   2:08.1  166.4 
293MarjorieFSub 7 V 7025   2:08.1  166.4 
294Bluebell31FSub 7 VI 7023   2:08.2  166.3 
295Jonathan AshmoreMFree Spirits VII 7007   2:08.4  165.2 
296Rick BaykomForum Flyers VII 7005   2:08.5  165.0 
297Edwige AfFIRT I 6986   2:08.8  163.7 
298stacy studleyMFitness Matters XX 6985   2:08.8  163.6 
299Peter (#ObeseManRowing) MetalliMFitness Matters XX 6970   2:09.1  162.6 
300CindyPFFIRT II 6949   2:09.5  161.1 
301DECONDE PhilippeMFIRT VII 6948   2:09.5  161.0 
302Barry McKechnieMSub 7 XIII 6941   2:09.7  160.5 
303Barbara HFFree Spirits I 6937   2:09.7  160.3 
304Dee_AmonfSub 7 VII 6926   2:09.9  159.5 
305Borut HafnermC2TweetCrew II 6911   2:10.2  158.5 
306Tina OSfPaddy Power II 6908   2:10.3  158.3 
307Davidski BarberskiMSki Erg I 6902   2:10.4  157.9 
308Annfrio Hansen FMFFitness Matters V 6902   2:10.4  157.9 
309Becky LongfDLC Gidea Park I 6857   2:11.3  154.8 
310Sarah Doyle PPfPaddy Power II 6852   2:11.3  154.5 
311Cathy Lowe RimovFSub 7 VIII 6851   2:11.4  154.4 
312Jack GilmoreMForum Flyers VIII 6847   2:11.4  154.1 
313Lindsay HewittFDLC Gidea Park II 6839   2:11.6  153.6 
314William Gooner HawkinsMC2TweetCrew III 6834   2:11.7  153.2 
315Jackie HicksFIndependent I 6831   2:11.8  153.0 
316Mark AitmanMFree Spirits VII 6828   2:11.8  152.8 
317Lizzy SmithFFitness Matters VI 6826   2:11.8  152.7 
318Debbie BarberFForum Flyers I 6825   2:11.9  152.6 
319Amanda Satterwhite FMFFitness Matters VII 6803   2:12.3  151.2 
320Steve CaryMGee Crew I 6801   2:12.3  151.0 
321Laurence LOPEZFFIRT III 6800   2:12.4  151.0 
322Laura FairbairnFFree Spirits II 6800   2:12.4  151.0 
323FunkyrowerMGee Crew II 6796   2:12.4  150.7 
324Susan YoungFSub 7 IX 6791   2:12.5  150.4 
325Ruth MillsFTribesports I 6788   2:12.6  150.2 
326Ruud JackelMRowPro Rowers III 6769   2:13.0  148.9 
327Danti FrancoismFIRT VII 6760   2:13.1  148.3 
328Kylie Marie MillettFSub 7 X 6759   2:13.2  148.2 
329Annette WammenfRowPro Rowers II 6759   2:13.2  148.2 
330RodgerMFree Spirits VII 6753   2:13.3  147.9 
331Lori LindahlFFitness Matters VIII 6734   2:13.7  146.6 
332Roger CruttendenMGee Crew II 6726   2:13.8  146.1 
333Kirstin EsauFFree Spirits III 6712   2:14.1  145.2 
334Kim Walker FMFFitness Matters IX 6709   2:14.1  145.0 
335Debbie MeekfGee Crew I 6693   2:14.5  143.9 
336Maurice BuhotMFIRT VIII 6667   2:15.0  142.3 
337Peter SheeanmForum Flyers VIII 6666   2:15.0  142.2 
338e-ClairMFree Spirits VIII 6655   2:15.2  141.5 
339Rose MetalliFFitness Matters X 6647   2:15.4  141.0 
340Andrew StanwayMFree Spirits VIII 6642   2:15.5  140.7 
341Claire MilneFDLC Gidea Park II 6634   2:15.7  140.2 
342Jon GoodallMMAD II 6624   2:15.9  139.5 
343Arwed Egger SkimSki Erg I 6604   2:16.3  138.3 
344Anne SlowskiFSki Erg I 6600   2:16.4  138.0 
345Howard Brammer skiMSki Erg II 6559   2:17.2  135.5 
346Steff Read FMFFitness Matters XI 6547   2:17.5  134.7 
347Leah SillfSub 7 XI 6547   2:17.5  134.7 
348Yvonne ApitzFSub 7 XII 6546   2:17.5  134.7 
349ShirleyFForum Flyers II 6541   2:17.6  134.4 
350Anita PearceFC2TweetCrew I 6526   2:17.9  133.4 
351clareburrellfFree Spirits IV 6525   2:17.9  133.4 
352Kathy SchofieldFForum Flyers III 6514   2:18.2  132.7 
353AbdulKSMC2TweetCrew III 6510   2:18.2  132.5 
354Caroline ChampionFSub 7 XIII 6493   2:18.6  131.4 
355Nadine CoudroyfFIRT IV 6486   2:18.8  131.0 
356Rob DrurymEmpty the Tanks II 6480   2:18.9  130.6 
357Georgina PriceFForum Flyers IV 6465   2:19.2  129.7 
358Maryanne MaguireFForum Flyers V 6438   2:19.8  128.1 
359Sarah Graham FuhrmannFSub 7 XIII 6432   2:19.9  127.8 
360MrsHill BillyFFitness Matters XII 6414   2:20.3  126.7 
361joW FFFForum Flyers VI 6412   2:20.4  126.6 
362Kim CaloniusMForum Flyers VIII 6388   2:20.9  125.2 
363Marie PourcharesseFFIRT V 6385   2:21.0  125.0 
364MilanMFIRT VIII 6365   2:21.4  123.8 
365Rachael Griffin FMFFitness Matters XIII 6363   2:21.4  123.7 
366Alison DalzielFSub 7 XIV 6348   2:21.8  122.8 
367Dave CarrieremFree Spirits VI 6333   2:22.1  121.9 
368cindy HALLEZFFIRT VI 6326   2:22.3  121.5 
369Lisa Stoehr FMFFitness Matters XIV 6321   2:22.4  121.3 
370Liz Gent ergFIndependent I 6245   2:24.1  116.9 
371Cat TrenthamfSub 7 XIV 6235   2:24.3  116.4 
372emilie DELANNOYfFIRT VII 6231   2:24.4  116.1 
373Godfrey TarlingmSub 7 XIV 6188   2:25.4  113.8 
374Sue MarksFPaddy Power II 6177   2:25.7  113.2 
375Liz GentFSki Erg II 6163   2:26.0  112.4 
376Roos_NLFÄIRC I 6161   2:26.1  112.3 
377macrothskiMSki Erg II 6144   2:26.5  111.4 
378Roger BurrellmFree Spirits VII 6116   2:27.2  109.8 
379Alice SmithFSub 7 XIV 6071   2:28.2  107.4 
380Sabine BicaFFIRT VIII 6045   2:28.9  106.1 
381Chantal CessesfFIRT VIII 6020   2:29.5  104.7 
382kerry williamsfFitness Matters X 5979   2:30.5  102.6 
383ianahmRed Line Rowers IV 5959   2:31.0  101.6 
384Josyane QuadradofFIRT VIII 5941   2:31.5  100.7 
385Shelagh AllenFSub 7 XIV 5935   2:31.6  100.4 
386Diana HendersonFRowPro Rowers III 5924   2:31.9  99.8 
387Candida BfTribesports II 5860   2:33.6  96.6 
388AnnettskifSki Erg II 5809   2:34.9  94.1 
389Damian BakerMTribesports II 5788   2:35.5  93.1 
390Jill UnderwoodFFree Spirits V 5525   2:42.9  81.0 
391Daisy-BellefPaddy Power III 5455   2:45.0  77.9 
392Frankie StudleyfFitness Matters XI 5379   2:47.3  74.7 
393Becky CastroFC2TweetCrew II 5208   2:52.8  67.8 
394rebrFTribesports II 5060   2:57.9  62.2 
395mjpermuthfAge Without Limits I 4627   3:14.5  47.6 
396Peter Metalli (ObeseMan Rowing)MFitness Matters XX 1  250:00:00.0  0.0 
397BorgfelsMSYC Rowing Crew I 1  250:00:00.0  0.0 
1
60 pts
Fitness Matters I 8425.4m
Sam Blythe (H)
Jon Nonklett FM (H)
Shane Kingsland (H)
Max O'Malley (L)
Claire Sowerby FM (F)
2
59 pts
Fitness Matters II 8325.8m
Kem Weihe FM (H)
Charles Green FM (H)
Benjamin Reuter (H)
Chris Kelly (L)
Inga Weihe FM (F)
3
58 pts
MAD I 8295.6m
Graham Benton (H)
j.d (H)
Pete Marston (H)
Mark Mitchell (L)
Anna Lewis (F)
4
57 pts
Sub 7 I 8237.2m
Scott Pollock (H)
Kev Bell (H)
Warren Matthews (H)
Alfred Okello (L)
Rhian Bowen (F)
5
56 pts
Fitness Matters III 8209.6m
Chris chapman (H)
Ole Bahlmann FM (H)
BlanksbyFM (H)
Bogi Olsen FM (L)
Victoria Taylor FM (F)
6
55 pts
FIRT I 8118.8m
KOWAL F (H)
EricL (H)
sebastien rodriguez (H)
js.kls (L)
Edwige A (F)
7
54 pts
Sub 7 II 8117.8m
Richard Cheeseman (H)
David Scott (H)
Jonty Leese (H)
Jens Kristian Dam (L)
Margaret Greenhall (F)
8
53 pts
Team Oarsome I 8114.2m
Danny Graham (H)
Dave Chmilowskyj (H)
Martin leach (H)
Gregory Cook II (L)
Hannah Hawkins (F)
9
52 pts
RowPro Rowers I 8075.2m
Toby J Backhouse (H)
Bjorn_Stensheim (H)
David Junta (H)
Arwed Egger (L)
Anne Bourlioux (F)
10
51 pts
Fitness Matters IV 8068.8m
Tobias Stoehr (H)
Lee Bawn FM (H)
11Thomas Hansen (H)
Chris Spurdle (L)
Sarah Gibbs FM (F)
11
50 pts
Paddy Power I 8044.2m
Luke Wollenschlaeger (H)
Andy Benko (H)
Dan mynard (H)
Joe A Keating (L)
LucyOB (F)
12
49 pts
Free Spirits I 7992.8m
Felton Humble (H)
Liefcat (H)
haaico (H)
John Steventon (L)
Barbara H (F)
13
48 pts
Sub 7 III 7978.2m
Walter Zagzebski (H)
Martin Evans (H)
Bergur Jensen (L)
Alastair Peake (L)
Carol Woodward (F)
14
47 pts
Fitness Matters V 7976.2m
Justin Farina FM (H)
Patrick Midgley (H)
Rob Condy-young FM (H)
Mike KM Beard (L)
Annfrio Hansen FM (F)
15
46 pts
Red Line Rowers I 7899.4m
Rowland Hills (RLR) (H)
Ian Witt RLR (H)
Keith Darby (L)
Bezza RLR (L)
Jo Andrews RLR (F)
16
45 pts
Forum Flyers I 7897.2m
Jeff Julian (H)
hjs (H)
Todd Carpenter (H)
Chris FF (L)
Debbie Barber (F)
17
44 pts
Fitness Matters VI 7895.4m
Paul Grimster (H)
Al Nisbet (H)
Lee Waddon (H)
1Jaime Ingleby (L)
Lizzy Smith (F)
18
43 pts
Sub 7 IV 7874.4m
cygwyllt (H)
Ally Cooper (H)
Sean Gaffney (H)
Stuart Jackson (L)
Sarita Kristina Hansen (F)
19
42 pts
FIRT II 7861.8m
Remy Coubel (H)
patrice CORNUT (H)
Jean-Charles RS (H)
Luis (L)
CindyP (F)
20
41 pts
Sub 7 V 7827.2m
Steven Richie (H)
bisqeet (H)
Matt Foster (H)
Arkadiusz Kieliszek (L)
Marjorie (F)
21
40 pts
Fitness Matters VII 7824.8m
Rowdy Hurst FM (H)
Julian Warrick (H)
Trevor Bailey FM (H)
Andrew Hajek FM (L)
Amanda Satterwhite FM (F)
22
39 pts
Fitness Matters VIII 7754.8m
Dave Pimm FM (H)
Robert Carson (H)
Sam Smith FM (H)
Paul Febery FM (L)
Lori Lindahl (F)
23
38 pts
Forum Flyers II 7739.2m
Odd Ivar Lindland (H)
macroth (H)
Nigel Farmer (H)
Rohan Gifford (L)
Shirley (F)
24
37 pts
Sub 7 VI 7736.6m
Casey Clarke (H)
Robert Jones (H)
Richard Steventon (H)
Marc Charman (L)
Bluebell31 (F)
25
36 pts
Free Spirits II 7676.8m
Morten Haugseng (H)
gregsmith01748 (H)
Seb Miller (H)
SanderJRoosendaal (L)
Laura Fairbairn (F)
26
35 pts
FIRT III 7667.4m
patrick TERGEMINA (H)
bougli13008 (L)
Mercier (L)
david FROC (L)
Laurence LOPEZ (F)
27
34 pts
DLC Gidea Park I 7646.8m
Robert Mayes (H)
Bob Bell (H)
John Price (H)
Joe Giggins (L)
Becky Long (F)
28
33 pts
Fitness Matters IX 7640.2m
Rob Childs (H)
1 Ross Love (H)
James stapleton (H)
Mark Shaw (L)
Kim Walker FM (F)
29
32 pts
Sub 7 VII 7594.2m
schuey (H)
Magnus K (H)
John Davies (H)
Rob J Wilson (L)
Dee_Amon (F)
30
31 pts
Forum Flyers III 7591.4m
Damien Roohr (H)
Wiecher (H)
Mark Christie (H)
Will Haskell (L)
Kathy Schofield (F)
31
30 pts
Red Line Rowers II 7571.6m
Mark Lysons (H)
Giles Clarke (RLR) (H)
Jorn Farmen (H)
Paul White (RLR) (L)
Shelagh tubby (F)
32
29 pts
C2TweetCrew I 7556m
Ralf Achenbach (H)
Andy J Pearce (H)
Markus Dorn (H)
Johan Hoeke (L)
Anita Pearce (F)
33
28 pts
Sub 7 VIII 7499.8m
Seb John (H)
Sam white HW (H)
Aaron Lancaster (H)
Paul David Smith (L)
Cathy Lowe Rimov (F)
34
27 pts
Sub 7 IX 7436.8m
Mark Powell (H)
Eric Jones (H)
Tom Dolly (H)
James Thornton (L)
Susan Young (F)
35
26 pts
Free Spirits III 7436.4m
Jon Esau (H)
Paul Victory (H)
Peter Weiß (H)
Dave2220 (L)
Kirstin Esau (F)
36
25 pts
Tribesports I 7429.8m
Paul Bryson (TS) (H)
Mike Channin (Tribesports) (H)
Ben M (H)
Alan Strang (TS) (L)
Ruth Mills (F)
37
24 pts
FIRT IV 7403.8m
Scott Kevin (H)
philou71 (H)
regis lardenois (H)
Jean-Pierre GORIN (L)
Nadine Coudroy (F)
38
23 pts
Forum Flyers IV 7380.6m
W de Jong (H)
David Whale (H)
andrewcrystal (H)
BradT2 FF (L)
Georgina Price (F)
39
22 pts
Sub 7 X 7358.8m
Gert Hansen (H)
Simon Thomas (H)
Jon Ciarlo (H)
Alan Champion (L)
Kylie Marie Millett (F)
40
21 pts
Fitness Matters X 7355.8m
John Healey FM (H)
Darren Owen FM (H)
Luke Grose FM (H)
kerry williams (L)
Rose Metalli (F)
41
20 pts
Gee Crew I 7341.2m
Andy Parkes (H)
Rouge (H)
Steve Cary (H)
Jim Head (L)
Debbie Meek (F)
42
19 pts
Free Spirits IV 7328.6m
Claudius (H)
Trevor Taylor (H)
Steve Smith (H)
David Plumb (L)
clareburrell (F)
43
18 pts
Forum Flyers V 7302.4m
anthony FF (H)
Lindsayh (H)
Steve Ockerby (H)
Adam Duthie (L)
Maryanne Maguire (F)
44
17 pts
Sub 7 XI 7240.2m
Timothy Turner (H)
Gerry McQuade (H)
Paul Heselwood (L)
Nigel Brockton (L)
Leah Sill (F)
45
16 pts
Independent I 7227.2m
Fred Frey (H)
Craig Hudson (H)
Oranj (L)
Jackie Hicks (F)
Liz Gent erg (F)
46
15 pts
Forum Flyers VI 7185m
Frank Noorlander (H)
Chris Whale (H)
Dex (H)
Dan Farmer (L)
joW FF (F)
47
14 pts
Fitness Matters XI 7161.4m
Tom Southall FM (H)
Pongi (H)
Ryan Morris FM (H)
Frankie Studley (L)
Steff Read FM (F)
48
13 pts
FIRT V 7147.6m
Fernandes Emmanuel (H)
David SAGON (H)
Deangeli JF (L)
Looping (L)
Marie Pourcharesse (F)
49
12 pts
Ski Erg I 7130.6m
Casey Clarke SkiErg (H)
Bjorn Tore Lodding ski (H)
Davidski Barberski (H)
Arwed Egger Ski (L)
Anne Slowski (F)
50
11 pts
Paddy Power II 7098.4m
Mark Fowler (H)
davidmarks (H)
Tina OS (L)
Sarah Doyle PP (F)
Sue Marks (F)
51
10 pts
RowPro Rowers II 7078.4m
Mike Creamer (H)
Cemlyn Jones (H)
Doug Rolland (H)
Annette Wammen (L)
Jordan Falcone (F)
52
9 pts
FIRT VI 7051.2m
laurent GALLO (H)
Chris R (H)
steeve DANDREY (H)
Guy Bealle (L)
cindy HALLEZ (F)
53
8 pts
Sub 7 XII 7045.4m
Andy Langman (H)
Jeremy Heaven (H)
Ken Fairley (L)
WazzaSub75 (L)
Yvonne Apitz (F)
54
7 pts
Free Spirits V 6978.6m
David Taylor (H)
alan wisniewski (H)
Richard Lindner (H)
Jon P Taylor (L)
Jill Underwood (F)
55
6 pts
C2TweetCrew II 6959.4m
Kay Bieri (H)
Dirk Veuger (H)
Stuart Thorp (H)
Borut Hafner (L)
Becky Castro (F)
56
5 pts
FIRT VII 6816.4m
Yves Gambier (H)
DECONDE Philippe (H)
herve pruneau (L)
Danti Francois (L)
emilie DELANNOY (F)
57
4 pts
Sub 7 XIII 6794.8m
Barry McKechnie (H)
Rod.Chinn (L)
Carlos Rodriguez (L)
Caroline Champion (F)
Sarah Graham Fuhrmann (F)
58
3 pts
Tribesports II 6231.4m
Christopher Smith (H)
Andy Tripp (H)
Damian Baker (H)
Candida B (L)
rebr (F)
59
2 pts
FIRT VIII 6207.6m
Maurice Buhot (H)
Milan (H)
Chantal Cesses (L)
Josyane Quadrado (L)
Sabine Bica (F)
60
1 pt
Sub 7 XIV 6155.4m
Godfrey Tarling (L)
Cat Trentham (L)
Alison Dalziel (F)
Alice Smith (F)
Shelagh Allen (F)
61Royal Navy I8269.6m
Daz Hoare (H)
James Hyde (H)
Apples (L)
 
62Team Oarsome II8058m
stupefaction (H)
Andy Burrows (H)
 
63Empty the Tanks I7627m
Joseph Smyntek (H)
Galeere (H)
Kenneth Murdoch (H)
Bill_Schmidt (L)
64Fitness Matters XV7617m
Lee buckley (H)
Dave Haynes (H)
Michael McKee (H)
 
65Penobscot River IRC I7533.5m
James Hildebrand (H)
2444 Rob Smiff (H)
 
66Fitness Matters XVI7526m
Nigel COLLEY (H)
Ash Dawe (H)
Matthew Tilt (H)
 
67Fitness Matters XII7496.7m
Roger Johansen FM (H)
Eddie Edwards FM (H)
tony walpole (H)
MrsHill Billy (F)
68Fitness Matters XVII7467.3m
Bela Visontai FM (H)
PAL (H)
Ben Withers (H)
 
69Fitness Matters XIII7410.7m
Stephen Perkins FM (H)
Dan Brookes (H)
Kevin James FM (H)
Rachael Griffin FM (F)
70CUS Bergamo I7384m
FREELANCE BG NORIS GIGI (L)
FREELANCE BG LANZONI S (F)
 
71Red Line Rowers III7380.5m
Hennie Martini (H)
Richard Campos (RLR) (H)
George Bingham (RLR) (H)
David Austin (L)
72Fitness Matters XIV7344m
Mark Gaffney FM (H)
Howard Brammer (H)
Ray Lowrie FM (H)
Lisa Stoehr FM (F)
73Fitness Matters XVIII7331.6m
Sion Evans (H)
Hill Billy (H)
Mark Oscroft FM (H)
 
74MAD II7271.2m
Jon Goodall (H)
Steve Price (L)
Charlotte Pigg (F)
Rachel Harris (F)
75Fitness Matters XIX7147.6m
Kim Hansen FM (H)
Andy Harvey FM (H)
Graham Tooth (H)
 
76Forum Flyers VII7115.2m
Olivier Deparis (H)
John Stock (H)
Paul Gould (H)
Rick Bayko (L)
77DLC Gidea Park II6978.7m
Mike Brownjohn (L)
Stuart Power (L)
Lindsay Hewitt (F)
Claire Milne (F)
78Red Line Rowers IV6908m
RLR_Andrew_Jones (H)
Roger Bjarm Fornebo (H)
Russ Gardener (H)
ianah (L)
79Free Spirits VI6906.7m
Rob C (H)
Mark Cawthorne (H)
Guenther Heldt (H)
Dave Carriere (L)
80C2TweetCrew III6812m
Martyn Smith (H)
William Gooner Hawkins (H)
AbdulKS (H)
 
81Gee Crew II6761m
Funkyrower (H)
Roger Cruttenden (H)
 
82Free Spirits VII6676m
Jonathan Ashmore (H)
Mark Aitman (H)
Rodger (H)
Roger Burrell (L)
83ÄIRC I6651.5m
Simon_Eng (H)
Roos_NL (F)
 
84Free Spirits VIII6648.5m
e-Clair (H)
Andrew Stanway (H)
 
85Age Without Limits I6636m
Mark Keown (H)
Jarrett Moore (H)
mjpermuth (L)
 
86Forum Flyers VIII6633.6m
Jack Gilmore (H)
Kim Calonius (H)
Peter Sheean (L)
 
87Empty the Tanks II6480m
Rob Drury (L)
 
88RowPro Rowers III6346.5m
Ruud Jackel (H)
Diana Henderson (F)
 
89Ski Erg II6168.7m
Howard Brammer ski (H)
macrothski (H)
Annettski (L)
Liz Gent (F)
90Paddy Power III5455m
Daisy-Belle (L)
 
91SYC Rowing Crew I5103m
André Hennings (H)
Dirk Sundermann (H)
Borgfels (H)
 
92Fitness Matters XX4652m
stacy studley (H)
Peter (#ObeseManRowing) Metalli (H)
Peter Metalli (ObeseMan Rowing) (H)
 

The Cross-Team Challenge is not supported or endorsed by Concept 2.
Site written by Daren Chandisingh. Please post any problems on the UK Concept 2 forum.

Valid XHTML 1.0 Transitional